sensor_id;sensor_type;location;lat;lon;timestamp;P1;durP1;ratioP1;P2;durP2;ratioP2
34296;SDS011;20564;42.902;25.336;2023-06-14T00:01:23;9.52;;;4.07;;
34296;SDS011;20564;42.902;25.336;2023-06-14T00:03:50;10.13;;;4.40;;
34296;SDS011;20564;42.902;25.336;2023-06-14T00:06:18;8.13;;;3.47;;
34296;SDS011;20564;42.902;25.336;2023-06-14T00:08:49;11.18;;;3.92;;
34296;SDS011;20564;42.902;25.336;2023-06-14T00:11:21;9.30;;;3.88;;
34296;SDS011;20564;42.902;25.336;2023-06-14T00:13:48;11.30;;;4.28;;
34296;SDS011;20564;42.902;25.336;2023-06-14T00:16:18;10.07;;;3.90;;
34296;SDS011;20564;42.902;25.336;2023-06-14T00:18:46;11.40;;;4.45;;
34296;SDS011;20564;42.902;25.336;2023-06-14T00:21:13;11.55;;;4.22;;
34296;SDS011;20564;42.902;25.336;2023-06-14T00:26:07;9.70;;;3.60;;
34296;SDS011;20564;42.902;25.336;2023-06-14T00:28:35;10.25;;;4.07;;
34296;SDS011;20564;42.902;25.336;2023-06-14T00:31:02;10.50;;;4.20;;
34296;SDS011;20564;42.902;25.336;2023-06-14T00:33:32;11.68;;;4.28;;
34296;SDS011;20564;42.902;25.336;2023-06-14T00:35:59;10.88;;;4.43;;
34296;SDS011;20564;42.902;25.336;2023-06-14T00:38:26;10.77;;;4.50;;
34296;SDS011;20564;42.902;25.336;2023-06-14T00:40:53;12.38;;;4.18;;
34296;SDS011;20564;42.902;25.336;2023-06-14T00:43:20;10.90;;;3.88;;
34296;SDS011;20564;42.902;25.336;2023-06-14T00:45:47;11.18;;;4.45;;
34296;SDS011;20564;42.902;25.336;2023-06-14T00:48:16;11.13;;;4.57;;
34296;SDS011;20564;42.902;25.336;2023-06-14T00:50:44;10.43;;;4.05;;
34296;SDS011;20564;42.902;25.336;2023-06-14T00:53:12;10.15;;;4.25;;
34296;SDS011;20564;42.902;25.336;2023-06-14T00:55:41;11.40;;;4.18;;
34296;SDS011;20564;42.902;25.336;2023-06-14T00:58:09;10.60;;;3.92;;
34296;SDS011;20564;42.902;25.336;2023-06-14T01:00:37;11.63;;;4.13;;
34296;SDS011;20564;42.902;25.336;2023-06-14T01:03:04;10.60;;;4.00;;
34296;SDS011;20564;42.902;25.336;2023-06-14T01:05:32;11.15;;;4.00;;
34296;SDS011;20564;42.902;25.336;2023-06-14T01:08:22;8.98;;;3.30;;
34296;SDS011;20564;42.902;25.336;2023-06-14T01:11:30;10.07;;;3.83;;
34296;SDS011;20564;42.902;25.336;2023-06-14T01:14:03;12.55;;;3.60;;
34296;SDS011;20564;42.902;25.336;2023-06-14T01:16:32;8.73;;;3.65;;
34296;SDS011;20564;42.902;25.336;2023-06-14T01:19:02;8.93;;;3.42;;
34296;SDS011;20564;42.902;25.336;2023-06-14T01:21:31;10.20;;;3.75;;
34296;SDS011;20564;42.902;25.336;2023-06-14T01:24:08;11.03;;;3.53;;
34296;SDS011;20564;42.902;25.336;2023-06-14T01:26:38;8.48;;;3.47;;
34296;SDS011;20564;42.902;25.336;2023-06-14T01:29:13;8.43;;;3.08;;
34296;SDS011;20564;42.902;25.336;2023-06-14T01:31:44;10.25;;;3.70;;
34296;SDS011;20564;42.902;25.336;2023-06-14T01:34:16;9.25;;;3.20;;
34296;SDS011;20564;42.902;25.336;2023-06-14T01:36:44;8.55;;;3.25;;
34296;SDS011;20564;42.902;25.336;2023-06-14T01:39:16;7.57;;;3.08;;
34296;SDS011;20564;42.902;25.336;2023-06-14T01:41:44;8.50;;;3.30;;
34296;SDS011;20564;42.902;25.336;2023-06-14T01:44:13;8.00;;;3.30;;
34296;SDS011;20564;42.902;25.336;2023-06-14T01:46:42;8.80;;;3.25;;
34296;SDS011;20564;42.902;25.336;2023-06-14T01:49:10;8.13;;;2.95;;
34296;SDS011;20564;42.902;25.336;2023-06-14T01:51:38;10.85;;;3.47;;
34296;SDS011;20564;42.902;25.336;2023-06-14T01:54:10;6.90;;;2.92;;
34296;SDS011;20564;42.902;25.336;2023-06-14T01:56:37;6.97;;;2.90;;
34296;SDS011;20564;42.902;25.336;2023-06-14T01:59:07;8.52;;;3.53;;
34296;SDS011;20564;42.902;25.336;2023-06-14T02:01:34;9.45;;;3.25;;
34296;SDS011;20564;42.902;25.336;2023-06-14T02:04:21;8.48;;;3.00;;
34296;SDS011;20564;42.902;25.336;2023-06-14T02:06:49;7.90;;;3.03;;
34296;SDS011;20564;42.902;25.336;2023-06-14T02:09:17;8.95;;;3.47;;
34296;SDS011;20564;42.902;25.336;2023-06-14T02:14:13;8.02;;;3.08;;
34296;SDS011;20564;42.902;25.336;2023-06-14T02:16:41;8.20;;;3.15;;
34296;SDS011;20564;42.902;25.336;2023-06-14T02:19:15;8.20;;;3.03;;
34296;SDS011;20564;42.902;25.336;2023-06-14T02:21:43;9.27;;;3.13;;
34296;SDS011;20564;42.902;25.336;2023-06-14T02:24:10;9.63;;;3.40;;
34296;SDS011;20564;42.902;25.336;2023-06-14T02:26:37;8.38;;;3.35;;
34296;SDS011;20564;42.902;25.336;2023-06-14T02:29:04;8.77;;;3.33;;
34296;SDS011;20564;42.902;25.336;2023-06-14T02:31:39;8.68;;;3.40;;
34296;SDS011;20564;42.902;25.336;2023-06-14T02:34:07;8.13;;;3.30;;
34296;SDS011;20564;42.902;25.336;2023-06-14T02:36:37;8.45;;;3.55;;
34296;SDS011;20564;42.902;25.336;2023-06-14T02:39:08;9.02;;;3.40;;
34296;SDS011;20564;42.902;25.336;2023-06-14T02:41:37;8.05;;;3.35;;
34296;SDS011;20564;42.902;25.336;2023-06-14T02:44:04;7.82;;;3.22;;
34296;SDS011;20564;42.902;25.336;2023-06-14T02:46:38;10.00;;;3.30;;
34296;SDS011;20564;42.902;25.336;2023-06-14T02:49:05;9.93;;;3.55;;
34296;SDS011;20564;42.902;25.336;2023-06-14T02:51:32;10.85;;;3.15;;
34296;SDS011;20564;42.902;25.336;2023-06-14T02:54:00;11.57;;;3.70;;
34296;SDS011;20564;42.902;25.336;2023-06-14T02:56:27;8.90;;;3.70;;
34296;SDS011;20564;42.902;25.336;2023-06-14T02:58:56;9.95;;;3.70;;
34296;SDS011;20564;42.902;25.336;2023-06-14T03:01:25;9.32;;;3.33;;
34296;SDS011;20564;42.902;25.336;2023-06-14T03:04:03;9.27;;;3.60;;
34296;SDS011;20564;42.902;25.336;2023-06-14T03:06:30;9.13;;;3.63;;
34296;SDS011;20564;42.902;25.336;2023-06-14T03:08:58;9.80;;;3.60;;
34296;SDS011;20564;42.902;25.336;2023-06-14T03:11:31;8.68;;;3.35;;
34296;SDS011;20564;42.902;25.336;2023-06-14T03:13:59;8.63;;;3.25;;
34296;SDS011;20564;42.902;25.336;2023-06-14T03:16:30;11.35;;;3.80;;
34296;SDS011;20564;42.902;25.336;2023-06-14T03:18:58;10.45;;;3.92;;
34296;SDS011;20564;42.902;25.336;2023-06-14T03:21:32;13.35;;;4.03;;
34296;SDS011;20564;42.902;25.336;2023-06-14T03:23:59;10.15;;;4.05;;
34296;SDS011;20564;42.902;25.336;2023-06-14T03:26:26;14.50;;;5.45;;
34296;SDS011;20564;42.902;25.336;2023-06-14T03:31:21;11.60;;;5.13;;
34296;SDS011;20564;42.902;25.336;2023-06-14T03:33:49;11.48;;;5.18;;
34296;SDS011;20564;42.902;25.336;2023-06-14T03:36:22;12.07;;;5.28;;
34296;SDS011;20564;42.902;25.336;2023-06-14T03:38:50;13.38;;;5.20;;
34296;SDS011;20564;42.902;25.336;2023-06-14T03:41:17;10.93;;;4.63;;
34296;SDS011;20564;42.902;25.336;2023-06-14T03:43:51;11.20;;;4.65;;
34296;SDS011;20564;42.902;25.336;2023-06-14T03:48:45;9.02;;;3.83;;
34296;SDS011;20564;42.902;25.336;2023-06-14T03:51:13;10.40;;;4.00;;
34296;SDS011;20564;42.902;25.336;2023-06-14T03:53:40;8.70;;;3.45;;
34296;SDS011;20564;42.902;25.336;2023-06-14T03:56:30;9.68;;;4.38;;
34296;SDS011;20564;42.902;25.336;2023-06-14T03:58:57;9.23;;;3.58;;
34296;SDS011;20564;42.902;25.336;2023-06-14T04:01:24;10.33;;;3.90;;
34296;SDS011;20564;42.902;25.336;2023-06-14T04:03:56;10.45;;;4.43;;
34296;SDS011;20564;42.902;25.336;2023-06-14T04:06:24;9.98;;;3.80;;
34296;SDS011;20564;42.902;25.336;2023-06-14T04:08:59;8.65;;;3.53;;
34296;SDS011;20564;42.902;25.336;2023-06-14T04:11:33;11.27;;;4.13;;
34296;SDS011;20564;42.902;25.336;2023-06-14T04:14:02;9.85;;;3.88;;
34296;SDS011;20564;42.902;25.336;2023-06-14T04:16:29;11.52;;;4.40;;
34296;SDS011;20564;42.902;25.336;2023-06-14T04:18:58;11.13;;;4.32;;
34296;SDS011;20564;42.902;25.336;2023-06-14T04:21:25;9.77;;;3.80;;
34296;SDS011;20564;42.902;25.336;2023-06-14T04:23:54;8.65;;;3.67;;
34296;SDS011;20564;42.902;25.336;2023-06-14T04:26:22;9.88;;;4.07;;
34296;SDS011;20564;42.902;25.336;2023-06-14T04:28:53;9.05;;;3.38;;
34296;SDS011;20564;42.902;25.336;2023-06-14T04:31:23;9.50;;;3.83;;
34296;SDS011;20564;42.902;25.336;2023-06-14T04:33:52;10.70;;;4.10;;
34296;SDS011;20564;42.902;25.336;2023-06-14T04:36:20;10.18;;;3.88;;
34296;SDS011;20564;42.902;25.336;2023-06-14T04:38:50;11.27;;;3.75;;
34296;SDS011;20564;42.902;25.336;2023-06-14T04:41:23;7.50;;;3.20;;
34296;SDS011;20564;42.902;25.336;2023-06-14T04:43:55;10.63;;;3.95;;
34296;SDS011;20564;42.902;25.336;2023-06-14T04:46:24;9.60;;;3.75;;
34296;SDS011;20564;42.902;25.336;2023-06-14T04:48:55;10.75;;;3.72;;
34296;SDS011;20564;42.902;25.336;2023-06-14T04:51:23;9.23;;;3.58;;
34296;SDS011;20564;42.902;25.336;2023-06-14T04:53:59;9.43;;;3.50;;
34296;SDS011;20564;42.902;25.336;2023-06-14T04:56:27;10.55;;;3.70;;
34296;SDS011;20564;42.902;25.336;2023-06-14T04:58:58;8.88;;;3.50;;
34296;SDS011;20564;42.902;25.336;2023-06-14T05:01:25;11.80;;;3.75;;
34296;SDS011;20564;42.902;25.336;2023-06-14T05:03:52;10.10;;;4.10;;
34296;SDS011;20564;42.902;25.336;2023-06-14T05:06:19;11.48;;;4.35;;
34296;SDS011;20564;42.902;25.336;2023-06-14T05:08:47;7.57;;;3.35;;
34296;SDS011;20564;42.902;25.336;2023-06-14T05:11:14;9.50;;;3.60;;
34296;SDS011;20564;42.902;25.336;2023-06-14T05:13:44;11.13;;;3.75;;
34296;SDS011;20564;42.902;25.336;2023-06-14T05:16:11;36.17;;;11.98;;
34296;SDS011;20564;42.902;25.336;2023-06-14T05:18:39;28.27;;;14.32;;
34296;SDS011;20564;42.902;25.336;2023-06-14T05:21:08;19.38;;;7.32;;
34296;SDS011;20564;42.902;25.336;2023-06-14T05:23:35;16.15;;;6.78;;
34296;SDS011;20564;42.902;25.336;2023-06-14T05:26:02;15.15;;;5.82;;
34296;SDS011;20564;42.902;25.336;2023-06-14T05:28:31;12.50;;;4.55;;
34296;SDS011;20564;42.902;25.336;2023-06-14T05:30:58;13.02;;;4.40;;
34296;SDS011;20564;42.902;25.336;2023-06-14T05:33:25;11.50;;;3.80;;
34296;SDS011;20564;42.902;25.336;2023-06-14T05:38:22;10.20;;;4.13;;
34296;SDS011;20564;42.902;25.336;2023-06-14T05:40:49;9.48;;;3.95;;
34296;SDS011;20564;42.902;25.336;2023-06-14T05:43:16;9.70;;;3.17;;
34296;SDS011;20564;42.902;25.336;2023-06-14T05:45:46;6.95;;;3.03;;
34296;SDS011;20564;42.902;25.336;2023-06-14T05:48:13;7.32;;;2.97;;
34296;SDS011;20564;42.902;25.336;2023-06-14T05:50:40;6.88;;;2.63;;
34296;SDS011;20564;42.902;25.336;2023-06-14T05:53:07;7.57;;;3.10;;
34296;SDS011;20564;42.902;25.336;2023-06-14T05:55:35;6.35;;;2.47;;
34296;SDS011;20564;42.902;25.336;2023-06-14T05:58:03;5.43;;;2.50;;
34296;SDS011;20564;42.902;25.336;2023-06-14T06:00:30;6.38;;;2.50;;
34296;SDS011;20564;42.902;25.336;2023-06-14T06:02:57;5.25;;;2.08;;
34296;SDS011;20564;42.902;25.336;2023-06-14T06:05:25;5.75;;;2.17;;
34296;SDS011;20564;42.902;25.336;2023-06-14T06:25:42;4.30;;;1.83;;
34296;SDS011;20564;42.902;25.336;2023-06-14T06:28:11;7.28;;;2.13;;
34296;SDS011;20564;42.902;25.336;2023-06-14T06:30:38;5.20;;;1.92;;
34296;SDS011;20564;42.902;25.336;2023-06-14T06:33:08;4.60;;;1.70;;
34296;SDS011;20564;42.902;25.336;2023-06-14T06:35:37;6.78;;;2.30;;
34296;SDS011;20564;42.902;25.336;2023-06-14T06:38:04;5.25;;;2.20;;
34296;SDS011;20564;42.902;25.336;2023-06-14T06:40:30;6.38;;;2.35;;
34296;SDS011;20564;42.902;25.336;2023-06-14T06:42:57;6.38;;;2.60;;
34296;SDS011;20564;42.902;25.336;2023-06-14T06:45:24;5.40;;;2.50;;
34296;SDS011;20564;42.902;25.336;2023-06-14T06:47:51;6.57;;;2.45;;
34296;SDS011;20564;42.902;25.336;2023-06-14T06:50:18;7.70;;;2.95;;
34296;SDS011;20564;42.902;25.336;2023-06-14T06:52:51;7.93;;;2.80;;
34296;SDS011;20564;42.902;25.336;2023-06-14T06:55:28;5.90;;;2.45;;
34296;SDS011;20564;42.902;25.336;2023-06-14T06:57:57;5.97;;;2.30;;
34296;SDS011;20564;42.902;25.336;2023-06-14T07:00:27;5.75;;;2.38;;
34296;SDS011;20564;42.902;25.336;2023-06-14T07:02:54;5.30;;;2.58;;
34296;SDS011;20564;42.902;25.336;2023-06-14T07:05:21;8.63;;;2.85;;
34296;SDS011;20564;42.902;25.336;2023-06-14T07:07:53;6.80;;;2.63;;
34296;SDS011;20564;42.902;25.336;2023-06-14T07:10:39;7.40;;;2.67;;
34296;SDS011;20564;42.902;25.336;2023-06-14T07:13:12;7.85;;;2.95;;
34296;SDS011;20564;42.902;25.336;2023-06-14T07:15:42;6.32;;;2.55;;
34296;SDS011;20564;42.902;25.336;2023-06-14T07:18:18;7.60;;;3.03;;
34296;SDS011;20564;42.902;25.336;2023-06-14T07:20:45;9.07;;;3.20;;
34296;SDS011;20564;42.902;25.336;2023-06-14T07:23:16;6.32;;;2.92;;
34296;SDS011;20564;42.902;25.336;2023-06-14T07:25:43;10.00;;;3.30;;
34296;SDS011;20564;42.902;25.336;2023-06-14T07:28:10;9.33;;;3.60;;
34296;SDS011;20564;42.902;25.336;2023-06-14T07:30:37;7.85;;;2.78;;
34296;SDS011;20564;42.902;25.336;2023-06-14T07:33:04;13.15;;;3.88;;
34296;SDS011;20564;42.902;25.336;2023-06-14T07:35:32;7.93;;;3.33;;
34296;SDS011;20564;42.902;25.336;2023-06-14T07:37:59;8.85;;;3.58;;
34296;SDS011;20564;42.902;25.336;2023-06-14T07:40:29;10.50;;;3.33;;
34296;SDS011;20564;42.902;25.336;2023-06-14T07:42:56;7.32;;;3.40;;
34296;SDS011;20564;42.902;25.336;2023-06-14T07:45:26;8.68;;;3.17;;
34296;SDS011;20564;42.902;25.336;2023-06-14T07:47:59;9.48;;;3.22;;
34296;SDS011;20564;42.902;25.336;2023-06-14T07:50:26;7.93;;;3.22;;
34296;SDS011;20564;42.902;25.336;2023-06-14T07:52:53;6.68;;;2.67;;
34296;SDS011;20564;42.902;25.336;2023-06-14T07:55:20;8.27;;;3.10;;
34296;SDS011;20564;42.902;25.336;2023-06-14T07:57:47;7.45;;;2.75;;
34296;SDS011;20564;42.902;25.336;2023-06-14T08:00:14;8.63;;;2.70;;
34296;SDS011;20564;42.902;25.336;2023-06-14T08:05:10;6.70;;;2.83;;
34296;SDS011;20564;42.902;25.336;2023-06-14T08:07:38;8.25;;;3.05;;
34296;SDS011;20564;42.902;25.336;2023-06-14T08:10:05;7.32;;;2.60;;
34296;SDS011;20564;42.902;25.336;2023-06-14T08:12:33;7.90;;;2.78;;
34296;SDS011;20564;42.902;25.336;2023-06-14T08:15:03;7.88;;;3.15;;
34296;SDS011;20564;42.902;25.336;2023-06-14T08:17:41;6.55;;;2.70;;
34296;SDS011;20564;42.902;25.336;2023-06-14T08:20:12;6.93;;;2.75;;
34296;SDS011;20564;42.902;25.336;2023-06-14T08:22:43;10.38;;;2.95;;
34296;SDS011;20564;42.902;25.336;2023-06-14T08:25:12;9.45;;;3.05;;
34296;SDS011;20564;42.902;25.336;2023-06-14T08:27:42;7.45;;;2.42;;
34296;SDS011;20564;42.902;25.336;2023-06-14T08:30:09;7.78;;;3.05;;
34296;SDS011;20564;42.902;25.336;2023-06-14T08:32:36;8.32;;;3.03;;
34296;SDS011;20564;42.902;25.336;2023-06-14T08:35:04;7.00;;;2.90;;
34296;SDS011;20564;42.902;25.336;2023-06-14T08:37:32;7.35;;;2.80;;
34296;SDS011;20564;42.902;25.336;2023-06-14T08:40:00;7.45;;;2.85;;
34296;SDS011;20564;42.902;25.336;2023-06-14T08:42:30;6.18;;;2.72;;
34296;SDS011;20564;42.902;25.336;2023-06-14T08:44:58;7.28;;;2.33;;
34296;SDS011;20564;42.902;25.336;2023-06-14T08:47:29;7.72;;;2.90;;
34296;SDS011;20564;42.902;25.336;2023-06-14T08:50:07;8.10;;;3.08;;
34296;SDS011;20564;42.902;25.336;2023-06-14T08:52:56;7.00;;;2.90;;
34296;SDS011;20564;42.902;25.336;2023-06-14T08:55:31;8.40;;;3.05;;
34296;SDS011;20564;42.902;25.336;2023-06-14T08:58:08;6.93;;;2.88;;
34296;SDS011;20564;42.902;25.336;2023-06-14T09:00:35;6.25;;;2.47;;
34296;SDS011;20564;42.902;25.336;2023-06-14T09:03:05;6.03;;;2.85;;
34296;SDS011;20564;42.902;25.336;2023-06-14T09:05:32;9.93;;;3.05;;
34296;SDS011;20564;42.902;25.336;2023-06-14T09:07:59;6.28;;;2.33;;
34296;SDS011;20564;42.902;25.336;2023-06-14T09:10:32;8.40;;;3.10;;
34296;SDS011;20564;42.902;25.336;2023-06-14T09:13:04;6.38;;;2.42;;
34296;SDS011;20564;42.902;25.336;2023-06-14T09:15:32;5.65;;;2.55;;
34296;SDS011;20564;42.902;25.336;2023-06-14T09:18:01;6.70;;;2.95;;
34296;SDS011;20564;42.902;25.336;2023-06-14T09:20:29;7.93;;;2.50;;
34296;SDS011;20564;42.902;25.336;2023-06-14T09:22:57;6.13;;;2.63;;
34296;SDS011;20564;42.902;25.336;2023-06-14T09:25:24;5.75;;;2.30;;
34296;SDS011;20564;42.902;25.336;2023-06-14T09:28:06;7.30;;;2.65;;
34296;SDS011;20564;42.902;25.336;2023-06-14T09:30:35;7.35;;;2.75;;
34296;SDS011;20564;42.902;25.336;2023-06-14T09:33:03;8.27;;;2.80;;
34296;SDS011;20564;42.902;25.336;2023-06-14T09:35:31;7.03;;;2.85;;
34296;SDS011;20564;42.902;25.336;2023-06-14T09:37:58;8.18;;;2.80;;
34296;SDS011;20564;42.902;25.336;2023-06-14T09:40:26;8.02;;;3.03;;
34296;SDS011;20564;42.902;25.336;2023-06-14T09:42:53;7.80;;;2.65;;
34296;SDS011;20564;42.902;25.336;2023-06-14T09:45:21;7.28;;;2.50;;
34296;SDS011;20564;42.902;25.336;2023-06-14T09:50:31;6.93;;;2.55;;
34296;SDS011;20564;42.902;25.336;2023-06-14T09:55:30;5.20;;;2.47;;
34296;SDS011;20564;42.902;25.336;2023-06-14T09:58:05;5.97;;;2.30;;
34296;SDS011;20564;42.902;25.336;2023-06-14T10:00:34;6.65;;;2.70;;
34296;SDS011;20564;42.902;25.336;2023-06-14T10:03:06;5.80;;;2.38;;
34296;SDS011;20564;42.902;25.336;2023-06-14T10:05:36;6.97;;;2.45;;
34296;SDS011;20564;42.902;25.336;2023-06-14T10:08:07;8.25;;;2.40;;
34296;SDS011;20564;42.902;25.336;2023-06-14T10:10:35;6.88;;;2.80;;
34296;SDS011;20564;42.902;25.336;2023-06-14T10:13:05;5.40;;;2.25;;
34296;SDS011;20564;42.902;25.336;2023-06-14T10:15:46;7.25;;;2.78;;
34296;SDS011;20564;42.902;25.336;2023-06-14T10:22:10;5.70;;;2.58;;
34296;SDS011;20564;42.902;25.336;2023-06-14T10:24:31;4.47;;;2.30;;
34296;SDS011;20564;42.902;25.336;2023-06-14T10:27:02;5.63;;;2.47;;
34296;SDS011;20564;42.902;25.336;2023-06-14T10:29:29;5.90;;;2.50;;
34296;SDS011;20564;42.902;25.336;2023-06-14T10:31:59;5.13;;;2.30;;
34296;SDS011;20564;42.902;25.336;2023-06-14T10:34:31;4.97;;;1.98;;
34296;SDS011;20564;42.902;25.336;2023-06-14T10:37:05;4.60;;;1.88;;
34296;SDS011;20564;42.902;25.336;2023-06-14T10:39:39;5.60;;;2.40;;
34296;SDS011;20564;42.902;25.336;2023-06-14T10:42:07;5.25;;;2.20;;
34296;SDS011;20564;42.902;25.336;2023-06-14T10:44:39;5.22;;;2.30;;
34296;SDS011;20564;42.902;25.336;2023-06-14T10:47:29;5.57;;;2.05;;
34296;SDS011;20564;42.902;25.336;2023-06-14T10:50:24;4.50;;;2.05;;
34296;SDS011;20564;42.902;25.336;2023-06-14T10:55:21;8.20;;;2.50;;
34296;SDS011;20564;42.902;25.336;2023-06-14T10:57:52;6.70;;;2.40;;
34296;SDS011;20564;42.902;25.336;2023-06-14T11:00:25;7.80;;;2.67;;
34296;SDS011;20564;42.902;25.336;2023-06-14T11:05:50;8.40;;;2.33;;
34296;SDS011;20564;42.902;25.336;2023-06-14T11:08:27;7.45;;;2.33;;
34296;SDS011;20564;42.902;25.336;2023-06-14T11:11:06;7.40;;;2.88;;
34296;SDS011;20564;42.902;25.336;2023-06-14T11:13:39;7.55;;;2.50;;
34296;SDS011;20564;42.902;25.336;2023-06-14T11:16:12;12.80;;;3.00;;
34296;SDS011;20564;42.902;25.336;2023-06-14T11:18:44;7.35;;;2.33;;
34296;SDS011;20564;42.902;25.336;2023-06-14T11:21:15;9.27;;;2.97;;
34296;SDS011;20564;42.902;25.336;2023-06-14T11:23:48;7.90;;;2.40;;
34296;SDS011;20564;42.902;25.336;2023-06-14T11:26:25;7.60;;;2.47;;
34296;SDS011;20564;42.902;25.336;2023-06-14T11:28:57;7.93;;;2.67;;
34296;SDS011;20564;42.902;25.336;2023-06-14T11:31:26;7.03;;;2.65;;
34296;SDS011;20564;42.902;25.336;2023-06-14T11:33:55;4.95;;;2.13;;
34296;SDS011;20564;42.902;25.336;2023-06-14T11:36:26;6.78;;;2.60;;
34296;SDS011;20564;42.902;25.336;2023-06-14T11:39:03;7.35;;;2.90;;
34296;SDS011;20564;42.902;25.336;2023-06-14T11:41:42;7.53;;;2.88;;
34296;SDS011;20564;42.902;25.336;2023-06-14T11:44:11;7.70;;;2.72;;
34296;SDS011;20564;42.902;25.336;2023-06-14T11:46:39;9.07;;;2.92;;
34296;SDS011;20564;42.902;25.336;2023-06-14T11:49:07;9.27;;;3.33;;
34296;SDS011;20564;42.902;25.336;2023-06-14T11:51:37;7.18;;;2.67;;
34296;SDS011;20564;42.902;25.336;2023-06-14T11:54:05;6.78;;;2.40;;
34296;SDS011;20564;42.902;25.336;2023-06-14T11:56:33;8.85;;;2.60;;
34296;SDS011;20564;42.902;25.336;2023-06-14T11:59:01;5.90;;;2.47;;
34296;SDS011;20564;42.902;25.336;2023-06-14T12:01:30;5.57;;;2.33;;
34296;SDS011;20564;42.902;25.336;2023-06-14T12:03:58;5.38;;;2.42;;
34296;SDS011;20564;42.902;25.336;2023-06-14T12:06:27;5.32;;;2.28;;
34296;SDS011;20564;42.902;25.336;2023-06-14T12:09:06;8.00;;;2.83;;
34296;SDS011;20564;42.902;25.336;2023-06-14T12:11:40;7.05;;;2.30;;
34296;SDS011;20564;42.902;25.336;2023-06-14T12:14:10;7.75;;;2.78;;
34296;SDS011;20564;42.902;25.336;2023-06-14T12:16:39;5.78;;;2.60;;
34296;SDS011;20564;42.902;25.336;2023-06-14T12:19:13;6.65;;;2.55;;
34296;SDS011;20564;42.902;25.336;2023-06-14T12:21:43;7.70;;;2.70;;
34296;SDS011;20564;42.902;25.336;2023-06-14T12:24:15;6.03;;;2.38;;
34296;SDS011;20564;42.902;25.336;2023-06-14T12:26:42;6.60;;;2.30;;
34296;SDS011;20564;42.902;25.336;2023-06-14T12:29:09;7.93;;;2.67;;
34296;SDS011;20564;42.902;25.336;2023-06-14T12:31:39;8.35;;;2.88;;
34296;SDS011;20564;42.902;25.336;2023-06-14T12:34:07;7.55;;;2.42;;
34296;SDS011;20564;42.902;25.336;2023-06-14T12:39:06;5.63;;;2.05;;
34296;SDS011;20564;42.902;25.336;2023-06-14T12:41:34;5.00;;;2.33;;
34296;SDS011;20564;42.902;25.336;2023-06-14T12:44:06;5.22;;;2.00;;
34296;SDS011;20564;42.902;25.336;2023-06-14T12:46:33;9.82;;;2.88;;
34296;SDS011;20564;42.902;25.336;2023-06-14T12:49:01;7.57;;;2.40;;
34296;SDS011;20564;42.902;25.336;2023-06-14T12:51:28;12.27;;;2.90;;
34296;SDS011;20564;42.902;25.336;2023-06-14T12:54:01;11.02;;;2.70;;
34296;SDS011;20564;42.902;25.336;2023-06-14T12:56:29;11.25;;;2.80;;
34296;SDS011;20564;42.902;25.336;2023-06-14T12:58:58;12.00;;;2.78;;
34296;SDS011;20564;42.902;25.336;2023-06-14T13:01:26;10.27;;;2.92;;
34296;SDS011;20564;42.902;25.336;2023-06-14T13:03:56;6.97;;;2.53;;
34296;SDS011;20564;42.902;25.336;2023-06-14T13:06:23;9.45;;;2.03;;
34296;SDS011;20564;42.902;25.336;2023-06-14T13:08:50;7.05;;;2.25;;
34296;SDS011;20564;42.902;25.336;2023-06-14T13:11:17;5.25;;;2.15;;
34296;SDS011;20564;42.902;25.336;2023-06-14T13:13:44;8.57;;;2.50;;
34296;SDS011;20564;42.902;25.336;2023-06-14T13:16:11;5.68;;;2.30;;
34296;SDS011;20564;42.902;25.336;2023-06-14T13:18:41;5.10;;;2.20;;
34296;SDS011;20564;42.902;25.336;2023-06-14T13:21:07;6.38;;;2.38;;
34296;SDS011;20564;42.902;25.336;2023-06-14T13:23:38;4.95;;;2.28;;
34296;SDS011;20564;42.902;25.336;2023-06-14T13:26:07;4.88;;;2.17;;
34296;SDS011;20564;42.902;25.336;2023-06-14T13:28:35;5.60;;;2.15;;
34296;SDS011;20564;42.902;25.336;2023-06-14T13:31:06;6.03;;;2.13;;
34296;SDS011;20564;42.902;25.336;2023-06-14T13:33:33;5.25;;;2.42;;
34296;SDS011;20564;42.902;25.336;2023-06-14T13:35:59;4.90;;;1.92;;
34296;SDS011;20564;42.902;25.336;2023-06-14T13:38:26;3.80;;;1.77;;
34296;SDS011;20564;42.902;25.336;2023-06-14T13:40:53;3.83;;;1.90;;
34296;SDS011;20564;42.902;25.336;2023-06-14T13:43:21;4.75;;;2.05;;
34296;SDS011;20564;42.902;25.336;2023-06-14T13:48:16;6.10;;;1.92;;
34296;SDS011;20564;42.902;25.336;2023-06-14T13:50:42;6.47;;;2.55;;
34296;SDS011;20564;42.902;25.336;2023-06-14T13:53:10;6.00;;;1.90;;
34296;SDS011;20564;42.902;25.336;2023-06-14T13:55:37;4.25;;;2.13;;
34296;SDS011;20564;42.902;25.336;2023-06-14T13:58:07;5.78;;;2.03;;
34296;SDS011;20564;42.902;25.336;2023-06-14T14:00:34;5.75;;;2.30;;
34296;SDS011;20564;42.902;25.336;2023-06-14T14:03:07;4.40;;;1.95;;
34296;SDS011;20564;42.902;25.336;2023-06-14T14:05:35;4.35;;;1.73;;
34296;SDS011;20564;42.902;25.336;2023-06-14T14:08:02;4.05;;;2.00;;
34296;SDS011;20564;42.902;25.336;2023-06-14T14:10:31;5.78;;;2.10;;
34296;SDS011;20564;42.902;25.336;2023-06-14T14:12:58;4.20;;;1.70;;
34296;SDS011;20564;42.902;25.336;2023-06-14T14:15:26;5.03;;;1.88;;
34296;SDS011;20564;42.902;25.336;2023-06-14T14:17:53;3.95;;;1.75;;
34296;SDS011;20564;42.902;25.336;2023-06-14T14:20:21;5.10;;;1.90;;
34296;SDS011;20564;42.902;25.336;2023-06-14T14:22:48;5.88;;;1.95;;
34296;SDS011;20564;42.902;25.336;2023-06-14T14:25:15;5.40;;;2.05;;
34296;SDS011;20564;42.902;25.336;2023-06-14T14:27:42;4.45;;;1.75;;
34296;SDS011;20564;42.902;25.336;2023-06-14T14:30:09;3.10;;;1.65;;
34296;SDS011;20564;42.902;25.336;2023-06-14T14:35:06;5.47;;;1.88;;
34296;SDS011;20564;42.902;25.336;2023-06-14T14:37:33;4.13;;;1.73;;
34296;SDS011;20564;42.902;25.336;2023-06-14T14:40:00;4.68;;;1.70;;
34296;SDS011;20564;42.902;25.336;2023-06-14T14:42:27;3.28;;;1.52;;
34296;SDS011;20564;42.902;25.336;2023-06-14T14:44:54;4.55;;;1.63;;
34296;SDS011;20564;42.902;25.336;2023-06-14T14:47:21;5.18;;;1.83;;
34296;SDS011;20564;42.902;25.336;2023-06-14T14:49:48;2.35;;;1.38;;
34296;SDS011;20564;42.902;25.336;2023-06-14T14:52:17;3.30;;;1.70;;
34296;SDS011;20564;42.902;25.336;2023-06-14T14:54:50;3.13;;;1.58;;
34296;SDS011;20564;42.902;25.336;2023-06-14T14:59:44;3.58;;;1.58;;
34296;SDS011;20564;42.902;25.336;2023-06-14T15:04:41;3.63;;;1.65;;
34296;SDS011;20564;42.902;25.336;2023-06-14T15:07:08;3.40;;;1.50;;
34296;SDS011;20564;42.902;25.336;2023-06-14T15:09:35;3.75;;;1.65;;
34296;SDS011;20564;42.902;25.336;2023-06-14T15:12:02;2.95;;;1.58;;
34296;SDS011;20564;42.902;25.336;2023-06-14T15:14:29;4.05;;;1.95;;
34296;SDS011;20564;42.902;25.336;2023-06-14T15:16:57;4.50;;;1.70;;
34296;SDS011;20564;42.902;25.336;2023-06-14T15:19:25;5.35;;;1.90;;
34296;SDS011;20564;42.902;25.336;2023-06-14T15:21:52;3.22;;;1.58;;
34296;SDS011;20564;42.902;25.336;2023-06-14T15:24:19;4.07;;;1.73;;
34296;SDS011;20564;42.902;25.336;2023-06-14T15:27:03;3.80;;;1.58;;
34296;SDS011;20564;42.902;25.336;2023-06-14T15:29:30;10.07;;;2.25;;
34296;SDS011;20564;42.902;25.336;2023-06-14T15:31:57;4.80;;;1.65;;
34296;SDS011;20564;42.902;25.336;2023-06-14T15:34:24;6.03;;;2.00;;
34296;SDS011;20564;42.902;25.336;2023-06-14T15:36:51;6.53;;;3.25;;
34296;SDS011;20564;42.902;25.336;2023-06-14T15:39:18;4.43;;;1.50;;
34296;SDS011;20564;42.902;25.336;2023-06-14T15:41:46;3.78;;;1.38;;
34296;SDS011;20564;42.902;25.336;2023-06-14T15:44:13;5.05;;;2.15;;